Craig, Alaska
Current Conditions -  °F | °C
As of 4:53 PM on Friday 24 Oct 2014 (Local Time) from PAKW Reporting Station
Overcast Overcast  
Wind Chill: 46°   Ceiling: 3200
Heat Index: 48°   Visibility: 10mi
Dew Point: 42°   Wind: 5mph
Humidity: 80%   Direction: NA
Pressure: 29.79"   Gusts: NA
Location:  55.47°N, 133.13°W
Report Text: PAKW 250053Z AUTO VRB04KT 10SM BKN032 OVC045 09/06 A2979 RMK AO2 RAE2358 SLP088 P0000 T00890056 TSNO
Loading
Personal Weather Stations






























Interactive Weather Map
Tropical Storm Tracking
New forecast layout! Learn more

10-Day Weather Forecast

Advertisements
Track Severe Weather on mobile